Time;durP1;ratioP1;P1;durP2;ratioP2;P2;SDS_P1;SDS_P2;PMS_P1;PMS_P2;Temp;Humidity;BMP_temperature;BMP_pressure;BME280_temperature;BME280_humidity;BME280_pressure;Samples;Min_cycle;Max_cycle;Signal;HPM_P1;HPM_P2
2023/12/24 00:01:05;;;;;;;5.53;4.03;;;;;;;6.28;100.00;63584.41;5072022;28;20185;-52
2023/12/24 00:03:33;;;;;;;8.93;4.57;;;;;;;6.40;100.00;63602.50;5072053;28;20204;-53
2023/12/24 00:05:58;;;;;;;6.77;4.37;;;;;;;6.38;100.00;63600.84;5053802;28;20270;-55
2023/12/24 00:08:24;;;;;;;10.30;4.30;;;;;;;6.51;100.00;63615.03;5072079;28;20209;-55
2023/12/24 00:10:49;;;;;;;7.43;4.17;;;;;;;6.55;100.00;63619.38;5053822;28;20184;-53
2023/12/24 00:13:15;;;;;;;9.73;5.10;;;;;;;6.59;100.00;63620.69;5071902;28;20212;-53
2023/12/24 00:15:40;;;;;;;9.93;4.90;;;;;;;6.83;100.00;63649.38;5071822;28;20173;-54
2023/12/24 00:18:06;;;;;;;9.67;5.57;;;;;;;6.86;100.00;63652.09;5072007;28;20231;-54
2023/12/24 00:20:32;;;;;;;7.90;4.20;;;;;;;6.98;100.00;63668.25;5071704;28;20272;-53
2023/12/24 00:23:06;;;;;;;8.40;4.33;;;;;;;7.08;100.00;63671.06;5071625;28;20715;-55
2023/12/24 00:25:32;;;;;;;7.97;5.20;;;;;;;7.04;100.00;63669.22;5071731;28;20215;-58
2023/12/24 00:28:00;;;;;;;8.33;4.60;;;;;;;6.83;100.00;63648.84;5071610;28;20209;-53
2023/12/24 00:30:29;;;;;;;5.87;4.10;;;;;;;6.78;100.00;63641.97;5053228;28;20196;-55
2023/12/24 00:32:55;;;;;;;7.10;3.77;;;;;;;6.57;100.00;63618.50;5053469;28;20291;-54
2023/12/24 00:35:21;;;;;;;8.83;4.63;;;;;;;6.65;100.00;63627.25;5071436;28;20188;-53
2023/12/24 00:37:47;;;;;;;5.40;3.67;;;;;;;6.73;100.00;63636.50;5071523;28;20201;-53
2023/12/24 00:40:13;;;;;;;6.77;3.53;;;;;;;6.87;100.00;63651.22;5071351;28;20255;-53
2023/12/24 00:42:41;;;;;;;9.17;4.20;;;;;;;6.94;100.00;63658.31;5053656;28;20216;-54
2023/12/24 00:45:08;;;;;;;4.27;2.53;;;;;;;7.03;100.00;63670.66;5071097;28;20212;-54
2023/12/24 00:47:34;;;;;;;4.67;3.03;;;;;;;7.30;100.00;63698.13;5071212;28;20690;-54
2023/12/24 00:50:00;;;;;;;5.17;2.80;;;;;;;7.31;100.00;63698.69;5071434;28;20290;-54
2023/12/24 00:52:25;;;;;;;4.17;2.93;;;;;;;7.34;100.00;63705.00;5071252;28;20621;-53
2023/12/24 00:54:51;;;;;;;5.87;3.30;;;;;;;7.44;100.00;63710.91;5071224;28;20185;-54
2023/12/24 00:57:16;;;;;;;7.33;3.60;;;;;;;7.35;100.00;63703.56;5071061;28;20196;-54
2023/12/24 00:59:42;;;;;;;5.27;2.60;;;;;;;7.43;100.00;63711.78;5071305;28;20639;-53
2023/12/24 01:02:07;;;;;;;4.70;2.60;;;;;;;7.60;100.00;63732.81;5071069;28;20204;-55
2023/12/24 01:04:33;;;;;;;5.17;3.00;;;;;;;7.55;100.00;63727.38;5071418;28;20195;-54
2023/12/24 01:06:59;;;;;;;5.50;2.97;;;;;;;7.60;100.00;63732.81;5071023;28;20204;-54
2023/12/24 01:09:25;;;;;;;8.60;3.27;;;;;;;7.57;100.00;63729.56;5071027;28;20271;-54
2023/12/24 01:11:50;;;;;;;4.70;2.70;;;;;;;7.64;100.00;63734.66;5071125;28;20290;-54
2023/12/24 01:14:16;;;;;;;4.23;2.50;;;;;;;7.73;100.00;63743.94;5071429;28;20192;-54
2023/12/24 01:16:41;;;;;;;8.27;2.30;;;;;;;7.87;100.00;63762.28;5070808;28;20212;-54
2023/12/24 01:19:07;;;;;;;5.47;2.77;;;;;;;7.93;100.00;63768.84;5071159;28;20195;-53
2023/12/24 01:21:33;;;;;;;5.37;2.20;;;;;;;8.03;100.00;63779.22;5070939;28;20270;-54
2023/12/24 01:23:59;;;;;;;3.73;1.97;;;;;;;8.15;100.00;63792.84;5070925;28;20680;-56
2023/12/24 01:26:24;;;;;;;2.23;1.73;;;;;;;8.32;98.87;63811.44;5052825;28;20262;-55
2023/12/24 01:28:50;;;;;;;4.07;1.53;;;;;;;8.48;96.26;63828.91;5052933;28;20211;-54
2023/12/24 01:31:15;;;;;;;2.87;1.60;;;;;;;8.59;94.24;63837.31;5070728;28;20670;-54
2023/12/24 01:33:41;;;;;;;1.90;1.07;;;;;;;8.74;90.89;63854.28;5070695;28;20612;-55
2023/12/24 01:36:07;;;;;;;2.43;1.20;;;;;;;8.74;90.50;63856.78;5052846;28;20188;-53
2023/12/24 01:38:33;;;;;;;2.67;1.00;;;;;;;8.79;89.29;63857.22;5070788;28;20240;-53
2023/12/24 01:40:59;;;;;;;1.90;1.07;;;;;;;8.78;88.65;63860.59;5053677;28;20301;-55
2023/12/24 01:43:25;;;;;;;4.37;1.00;;;;;;;8.87;84.86;63867.91;5074210;28;20212;-55
2023/12/24 01:45:51;;;;;;;1.00;0.87;;;;;;;8.87;85.06;63867.91;5074055;28;20288;-55
2023/12/24 01:48:17;;;;;;;2.70;0.97;;;;;;;8.84;84.80;63864.63;5074188;28;20208;-59
2023/12/24 01:50:48;;;;;;;2.30;1.00;;;;;;;8.76;84.56;63856.44;5074076;28;20177;-55
2023/12/24 01:53:16;;;;;;;1.77;1.03;;;;;;;8.82;83.39;63859.94;5074006;28;20291;-55
2023/12/24 01:55:43;;;;;;;1.33;1.00;;;;;;;8.80;83.90;63860.81;5074076;28;20222;-53
2023/12/24 01:58:08;;;;;;;1.63;1.50;;;;;;;8.65;82.03;63841.38;5081324;22;20232;-54
2023/12/24 02:00:34;;;;;;;2.80;1.20;;;;;;;8.71;82.54;63850.44;5073934;28;20192;-54
2023/12/24 02:03:01;;;;;;;1.17;0.67;;;;;;;8.74;81.65;63851.19;5074188;28;20212;-54
2023/12/24 02:05:27;;;;;;;1.47;0.87;;;;;;;8.76;81.07;63855.91;5056099;28;20254;-54
2023/12/24 02:07:55;;;;;;;2.00;0.97;;;;;;;8.70;81.19;63849.34;5074188;28;20299;-53
2023/12/24 02:10:20;;;;;;;5.03;1.00;;;;;;;8.74;81.27;63856.78;5073866;28;20192;-54
2023/12/24 02:12:46;;;;;;;0.87;0.70;;;;;;;8.69;82.13;63851.31;5073784;28;20200;-53
2023/12/24 02:15:12;;;;;;;2.90;1.00;;;;;;;8.71;80.69;63850.97;5073852;28;20552;-54
2023/12/24 02:17:38;;;;;;;3.17;0.73;;;;;;;8.76;80.29;63858.41;5073683;28;20266;-53
2023/12/24 02:20:05;;;;;;;3.00;0.90;;;;;;;8.72;81.21;63852.09;5073628;28;20185;-53
2023/12/24 02:22:31;;;;;;;1.43;0.80;;;;;;;8.70;79.39;63849.34;5073481;28;20223;-53
2023/12/24 02:24:57;;;;;;;3.67;1.13;;;;;;;8.70;79.47;63846.84;5073775;28;20208;-54
2023/12/24 02:27:43;;;;;;;1.57;1.00;;;;;;;8.62;80.56;63840.59;5055632;28;20212;-53
2023/12/24 02:30:15;;;;;;;2.67;1.00;;;;;;;8.45;80.57;63820.63;5073700;28;20192;-55
2023/12/24 02:32:43;;;;;;;1.63;1.03;;;;;;;8.53;81.14;63831.31;5073837;28;20213;-56
2023/12/24 02:35:11;;;;;;;1.40;0.90;;;;;;;8.60;80.13;63838.41;5073534;28;20591;-54
2023/12/24 02:37:36;;;;;;;0.97;0.80;;;;;;;8.52;80.58;63829.69;5055234;28;20605;-53
2023/12/24 02:40:03;;;;;;;2.77;1.40;;;;;;;8.44;81.66;63821.50;5073347;28;20268;-54
2023/12/24 02:42:28;;;;;;;2.00;1.03;;;;;;;8.46;81.12;63821.69;5073571;28;20262;-55
2023/12/24 02:44:54;;;;;;;2.13;1.30;;;;;;;8.39;82.41;63814.06;5073387;28;20213;-52
2023/12/24 02:47:19;;;;;;;2.80;1.10;;;;;;;8.39;82.86;63816.03;5073428;28;20216;-53
2023/12/24 02:49:45;;;;;;;2.50;0.80;;;;;;;8.35;82.98;63812.22;5073277;28;20673;-54
2023/12/24 02:52:10;;;;;;;2.03;1.30;;;;;;;8.35;83.11;63812.22;5073316;28;20694;-55
2023/12/24 02:54:36;;;;;;;2.20;0.93;;;;;;;8.34;83.13;63808.59;5073158;28;20673;-54
2023/12/24 02:57:02;;;;;;;1.00;0.87;;;;;;;8.41;82.55;63818.75;5073265;28;20259;-54
2023/12/24 02:59:28;;;;;;;1.20;0.70;;;;;;;8.41;82.46;63815.69;5073028;28;20196;-58
2023/12/24 03:01:53;;;;;;;1.40;0.80;;;;;;;8.37;83.23;63816.34;5055129;28;20573;-54
2023/12/24 03:04:19;;;;;;;2.13;0.77;;;;;;;8.40;82.46;63819.63;5055030;28;20687;-55
2023/12/24 03:06:45;;;;;;;2.17;0.87;;;;;;;8.27;82.17;63802.91;5072707;28;20225;-53
2023/12/24 03:09:12;;;;;;;1.93;1.00;;;;;;;8.30;83.05;63809.25;5073198;28;20220;-54
2023/12/24 03:11:37;;;;;;;4.33;0.90;;;;;;;8.25;83.23;63803.81;5054836;28;20569;-53
2023/12/24 03:14:03;;;;;;;0.80;0.77;;;;;;;8.30;82.32;63809.25;5073109;28;20199;-55
2023/12/24 03:16:28;;;;;;;2.37;0.93;;;;;;;8.25;82.74;63801.28;5072791;28;20254;-54
2023/12/24 03:18:54;;;;;;;1.77;0.80;;;;;;;8.19;82.71;63792.22;5072992;28;20188;-55
2023/12/24 03:21:19;;;;;;;1.47;1.03;;;;;;;8.22;82.75;63797.44;5072724;28;20573;-55
2023/12/24 03:23:45;;;;;;;0.73;0.70;;;;;;;8.13;83.51;63787.63;5072784;28;20219;-54
2023/12/24 03:26:23;;;;;;;1.33;0.80;;;;;;;8.07;83.69;63781.06;5072660;28;20205;-54
2023/12/24 03:28:50;;;;;;;1.60;1.13;;;;;;;8.12;82.65;63787.06;5072726;28;20197;-55
2023/12/24 03:31:16;;;;;;;1.47;1.00;;;;;;;8.14;82.43;63788.72;5072703;28;20185;-55
2023/12/24 03:33:41;;;;;;;1.80;1.03;;;;;;;8.06;82.69;63783.03;5072831;28;20658;-55
2023/12/24 03:36:08;;;;;;;1.63;1.10;;;;;;;8.10;82.90;63786.84;5072619;28;20181;-54
2023/12/24 03:38:34;;;;;;;1.67;0.90;;;;;;;8.02;82.74;63775.63;5072875;28;20578;-53
2023/12/24 03:40:59;;;;;;;1.33;0.80;;;;;;;8.03;83.15;63777.25;5072512;28;20263;-54
2023/12/24 03:43:25;;;;;;;3.23;1.40;;;;;;;7.98;83.17;63771.78;5072572;28;20216;-57
2023/12/24 03:45:50;;;;;;;1.47;1.03;;;;;;;7.98;83.55;63771.25;5072364;28;20235;-54
2023/12/24 03:48:16;;;;;;;1.10;0.73;;;;;;;7.97;83.99;63770.69;5054404;28;20208;-54
2023/12/24 03:50:43;;;;;;;1.57;1.10;;;;;;;7.99;83.05;63772.34;5054299;28;20636;-54
2023/12/24 03:53:08;;;;;;;2.63;0.90;;;;;;;8.00;83.17;63773.44;5072145;28;20212;-55
2023/12/24 03:55:34;;;;;;;1.10;0.77;;;;;;;7.98;82.78;63774.28;5037515;28;20184;-55
2023/12/24 03:57:59;;;;;;;1.47;1.00;;;;;;;8.06;82.58;63777.47;5037788;28;20213;-56
2023/12/24 04:00:25;;;;;;;2.93;0.80;;;;;;;8.06;82.76;63779.97;5072226;28;20288;-55
2023/12/24 04:02:52;;;;;;;1.03;0.70;;;;;;;8.19;81.38;63796.69;5072124;28;20212;-52
2023/12/24 04:05:17;;;;;;;1.30;0.90;;;;;;;8.35;80.42;63812.22;5071397;28;20204;-54
2023/12/24 04:07:43;;;;;;;0.77;0.70;;;;;;;8.41;79.99;63818.22;5072155;28;20216;-57
2023/12/24 04:10:09;;;;;;;1.23;0.90;;;;;;;8.41;79.94;63821.28;5054322;28;20193;-56
2023/12/24 04:12:35;;;;;;;1.43;1.00;;;;;;;8.35;80.04;63811.66;5072111;28;20270;-55
2023/12/24 04:15:01;;;;;;;2.27;1.03;;;;;;;8.27;80.97;63803.47;5053937;28;20189;-53
2023/12/24 04:17:26;;;;;;;1.40;0.87;;;;;;;8.22;81.60;63799.97;5071938;28;20562;-57
2023/12/24 04:19:52;;;;;;;1.33;1.00;;;;;;;8.24;82.31;63799.63;5072004;28;20188;-55
2023/12/24 04:22:17;;;;;;;1.57;1.20;;;;;;;8.21;82.68;63799.41;5071881;28;20299;-58
2023/12/24 04:24:43;;;;;;;0.90;0.90;;;;;;;8.21;83.28;63796.91;5071896;28;20188;-55
2023/12/24 04:27:10;;;;;;;1.57;1.00;;;;;;;8.17;83.79;63792.53;5071948;28;20223;-54
2023/12/24 04:29:36;;;;;;;1.27;0.83;;;;;;;8.12;84.37;63789.03;5053938;28;20242;-54
2023/12/24 04:32:02;;;;;;;1.30;0.90;;;;;;;8.07;85.07;63784.13;5071680;28;20216;-54
2023/12/24 04:34:27;;;;;;;2.00;1.17;;;;;;;8.06;85.73;63782.50;5071482;28;20710;-55
2023/12/24 04:36:53;;;;;;;1.00;0.90;;;;;;;8.02;85.85;63775.63;5071369;28;20264;-54
2023/12/24 04:39:19;;;;;;;1.23;1.13;;;;;;;8.01;86.36;63774.50;5071518;28;20185;-55
2023/12/24 04:41:44;;;;;;;1.60;1.20;;;;;;;8.01;85.91;63774.50;5053429;28;20224;-54
2023/12/24 04:44:10;;;;;;;1.60;0.97;;;;;;;8.03;85.76;63776.69;5071735;28;20185;-56
2023/12/24 04:46:43;;;;;;;1.50;1.07;;;;;;;8.03;86.22;63776.69;5071220;28;20273;-54
2023/12/24 04:49:08;;;;;;;1.13;0.90;;;;;;;8.04;85.80;63775.28;5071496;28;20188;-55
2023/12/24 04:51:34;;;;;;;2.67;1.33;;;;;;;8.16;85.38;63793.94;5071240;28;20193;-55
2023/12/24 04:54:00;;;;;;;2.27;1.00;;;;;;;8.16;85.04;63788.91;5078720;22;20185;-56
2023/12/24 04:56:25;;;;;;;2.23;1.13;;;;;;;8.18;85.56;63796.13;5053170;28;20224;-55
2023/12/24 04:58:51;;;;;;;2.00;1.00;;;;;;;8.19;84.80;63794.16;5071517;28;20279;-54
2023/12/24 05:01:17;;;;;;;1.60;1.00;;;;;;;8.27;84.46;63803.47;5071206;28;20690;-54
2023/12/24 05:03:43;;;;;;;0.80;0.80;;;;;;;8.26;84.19;63804.34;5053162;28;20636;-54
2023/12/24 05:06:09;;;;;;;0.60;0.60;;;;;;;8.32;83.80;63808.91;5071063;28;20208;-55
2023/12/24 05:08:34;;;;;;;1.57;0.73;;;;;;;8.28;83.74;63807.06;5053020;28;20608;-55
2023/12/24 05:11:08;;;;;;;0.67;0.53;;;;;;;8.38;82.95;63814.94;5071168;28;20653;-56
2023/12/24 05:13:35;;;;;;;1.17;0.70;;;;;;;8.41;83.11;63818.75;5052906;28;20295;-54
2023/12/24 05:16:04;;;;;;;0.50;0.50;;;;;;;8.39;82.68;63819.09;5069822;28;20199;-54
2023/12/24 05:18:31;;;;;;;0.70;0.70;;;;;;;8.40;84.46;63817.66;5053095;28;20212;-54
2023/12/24 05:20:57;;;;;;;0.80;0.50;;;;;;;8.44;82.96;63821.50;5071237;28;20200;-55
2023/12/24 05:23:24;;;;;;;1.03;0.80;;;;;;;8.44;83.68;63819.00;5070636;28;20208;-53
2023/12/24 05:25:50;;;;;;;0.83;0.70;;;;;;;8.42;84.45;63821.81;5070767;28;20222;-54
2023/12/24 05:28:18;;;;;;;0.70;0.70;;;;;;;8.40;83.78;63820.16;5070791;28;20205;-54
2023/12/24 05:30:45;;;;;;;1.37;1.03;;;;;;;8.39;84.40;63819.09;5071161;28;20285;-56
2023/12/24 05:33:10;;;;;;;0.73;0.73;;;;;;;8.33;84.82;63810.03;5070798;28;20211;-57
2023/12/24 05:35:36;;;;;;;2.00;0.73;;;;;;;8.35;84.36;63811.66;5070962;28;20627;-54
2023/12/24 05:38:01;;;;;;;2.00;0.93;;;;;;;8.45;83.39;63825.63;5070701;28;20210;-54
2023/12/24 05:40:27;;;;;;;1.13;0.80;;;;;;;8.40;82.91;63819.63;5071069;28;20230;-54
2023/12/24 05:42:53;;;;;;;1.27;0.70;;;;;;;8.48;82.51;63823.88;5070642;28;20678;-53
2023/12/24 05:45:18;;;;;;;1.17;0.87;;;;;;;8.51;82.64;63826.06;5052448;28;20304;-53
2023/12/24 05:47:44;;;;;;;1.10;1.00;;;;;;;8.47;83.53;63824.75;5052546;28;20693;-53
2023/12/24 05:50:10;;;;;;;1.70;0.90;;;;;;;8.51;82.40;63826.06;5070923;28;20310;-54
2023/12/24 05:52:37;;;;;;;4.23;0.97;;;;;;;8.44;82.74;63822.03;5070519;28;20217;-54
2023/12/24 05:55:03;;;;;;;1.73;1.00;;;;;;;8.47;82.29;63824.75;5070765;28;20185;-60
2023/12/24 05:57:29;;;;;;;1.70;1.03;;;;;;;8.44;82.67;63819.50;5070502;28;20209;-53
2023/12/24 05:59:56;;;;;;;1.93;0.60;;;;;;;8.44;83.10;63819.50;5070671;28;20547;-55
2023/12/24 06:02:21;;;;;;;1.20;0.70;;;;;;;8.43;83.00;63820.94;5070366;28;20212;-55
2023/12/24 06:04:47;;;;;;;1.40;0.90;;;;;;;8.38;82.79;63814.94;5070428;28;20251;-55
2023/12/24 06:07:12;;;;;;;1.67;0.73;;;;;;;8.37;83.21;63816.91;5070163;28;20270;-53
2023/12/24 06:09:38;;;;;;;1.87;0.87;;;;;;;8.45;83.25;63822.56;5052555;28;20188;-54
2023/12/24 06:12:04;;;;;;;2.73;1.20;;;;;;;8.44;83.34;63819.50;5070398;28;20230;-54
2023/12/24 06:14:30;;;;;;;1.77;1.17;;;;;;;8.40;83.95;63817.66;5070524;28;20208;-55
2023/12/24 06:16:56;;;;;;;2.07;1.27;;;;;;;8.43;83.95;63823.47;5070280;28;20221;-55
2023/12/24 06:19:22;;;;;;;1.90;1.10;;;;;;;8.43;83.89;63823.47;5077390;22;20228;-55
2023/12/24 06:21:47;;;;;;;1.43;0.80;;;;;;;8.53;83.56;63830.75;5052185;28;20216;-54
2023/12/24 06:24:13;;;;;;;1.10;0.80;;;;;;;8.53;82.94;63831.31;5052154;28;20196;-54
2023/12/24 06:26:38;;;;;;;1.60;0.80;;;;;;;8.57;82.95;63838.19;5070346;28;20220;-54
2023/12/24 06:29:04;;;;;;;1.10;1.00;;;;;;;8.61;83.20;63837.00;5073444;28;20216;-54
2023/12/24 06:31:29;;;;;;;1.03;0.80;;;;;;;8.62;83.26;63841.16;5055339;28;20196;-55
2023/12/24 06:33:55;;;;;;;0.80;0.63;;;;;;;8.72;82.85;63854.59;5073471;28;20196;-54
2023/12/24 06:36:20;;;;;;;1.23;0.77;;;;;;;8.84;82.84;63864.63;5073240;28;20675;-53
2023/12/24 06:38:46;;;;;;;4.03;1.30;;;;;;;10.59;100.00;64055.50;5073587;28;20209;-55
2023/12/24 06:41:11;;;;;;;3.43;0.83;;;;;;;11.12;100.00;64115.50;5073288;28;20185;-54
2023/12/24 06:43:38;;;;;;;2.40;1.40;;;;;;;10.42;81.24;64038.88;5073025;28;20209;-53
2023/12/24 06:46:06;;;;;;;2.83;1.50;;;;;;;9.71;79.79;63962.25;5073334;28;20262;-54
2023/12/24 06:48:32;;;;;;;2.10;1.43;;;;;;;9.38;80.37;63920.59;5072776;28;20209;-55
2023/12/24 06:50:58;;;;;;;3.10;1.90;;;;;;;9.20;81.15;63903.97;5073142;28;20185;-58
2023/12/24 06:53:25;;;;;;;3.20;1.83;;;;;;;9.11;80.62;63891.63;5072969;28;20319;-54
2023/12/24 06:55:50;;;;;;;2.63;1.20;;;;;;;9.09;80.71;63892.50;5072994;28;20196;-54
2023/12/24 06:58:16;;;;;;;1.47;1.10;;;;;;;9.14;79.59;63897.97;5073447;28;20209;-59
2023/12/24 07:00:42;;;;;;;1.57;1.13;;;;;;;9.06;79.49;63886.16;5073202;28;20200;-53
2023/12/24 07:03:07;;;;;;;2.13;1.10;;;;;;;9.13;79.13;63896.34;5073145;28;20209;-54
2023/12/24 07:05:35;;;;;;;2.27;1.33;;;;;;;9.17;79.66;63898.19;5072941;28;20213;-53
2023/12/24 07:08:01;;;;;;;3.10;1.20;;;;;;;9.14;79.11;63897.97;5073005;28;20212;-55
2023/12/24 07:10:27;;;;;;;3.30;1.63;;;;;;;9.18;79.41;63897.31;5072812;28;20651;-54
2023/12/24 07:12:52;;;;;;;2.00;0.90;;;;;;;9.20;78.90;63904.53;5072821;28;20201;-55
2023/12/24 07:15:18;;;;;;;1.77;0.97;;;;;;;9.21;79.07;63905.09;5073112;28;20184;-55
2023/12/24 07:17:43;;;;;;;1.50;1.00;;;;;;;9.38;79.86;63923.09;5072953;28;20227;-55
2023/12/24 07:20:11;;;;;;;2.33;1.03;;;;;;;9.43;79.33;63929.13;5072732;28;20276;-54
2023/12/24 07:22:37;;;;;;;0.87;0.60;;;;;;;9.41;77.96;63926.94;5072514;28;20221;-58
2023/12/24 07:25:03;;;;;;;1.20;1.10;;;;;;;9.42;77.94;63925.50;5072664;28;20200;-55
2023/12/24 07:27:28;;;;;;;1.93;0.70;;;;;;;9.39;76.72;63922.25;5072790;28;20212;-55
2023/12/24 07:29:54;;;;;;;1.20;0.90;;;;;;;9.37;77.36;63922.56;5072608;28;20651;-55
2023/12/24 07:32:19;;;;;;;5.27;1.87;;;;;;;9.46;78.14;63934.91;5072439;28;20220;-55
2023/12/24 07:34:45;;;;;;;1.47;1.20;;;;;;;9.69;78.87;63957.56;5072109;28;20220;-54
2023/12/24 07:37:11;;;;;;;3.13;1.40;;;;;;;9.87;78.37;63974.72;5072393;28;20213;-53
2023/12/24 07:39:37;;;;;;;2.93;1.60;;;;;;;9.98;77.51;63989.25;5071347;28;20636;-55
2023/12/24 07:42:03;;;;;;;4.77;2.63;;;;;;;9.97;79.58;63985.66;5072254;28;20205;-55
2023/12/24 07:44:28;;;;;;;9.40;4.80;;;;;;;10.14;92.31;64008.75;5072307;28;20268;-60
2023/12/24 07:46:55;;;;;;;12.90;7.50;;;;;;;10.34;85.77;64027.59;5072077;28;20574;-56
2023/12/24 07:49:21;;;;;;;13.67;7.30;;;;;;;10.14;84.78;64006.78;5072998;28;20189;-54
2023/12/24 07:51:49;;;;;;;15.83;6.70;;;;;;;10.12;84.39;64004.59;5072391;28;20590;-55
2023/12/24 07:54:14;;;;;;;9.27;6.00;;;;;;;10.01;86.16;63990.03;5071779;28;20196;-54
2023/12/24 07:59:24;;;;;;;8.60;4.73;;;;;;;10.26;84.45;64018.84;5071701;28;20342;-54
2023/12/24 08:01:50;;;;;;;6.73;4.60;;;;;;;10.41;83.28;64035.78;5071733;28;20299;-53
2023/12/24 08:04:15;;;;;;;8.43;4.43;;;;;;;10.75;82.03;64073.00;5053677;28;20181;-55
2023/12/24 08:06:40;;;;;;;5.90;3.73;;;;;;;10.88;79.16;64089.78;5053883;28;20212;-55
2023/12/24 08:09:07;;;;;;;6.67;4.87;;;;;;;11.05;79.26;64102.78;5072096;28;20189;-53
2023/12/24 08:11:33;;;;;;;4.87;3.40;;;;;;;10.84;76.85;64079.78;5071660;28;20193;-59
2023/12/24 08:14:07;;;;;;;6.37;3.30;;;;;;;10.70;78.65;64065.03;5053888;28;20192;-54
2023/12/24 08:16:35;;;;;;;8.57;4.00;;;;;;;10.74;78.75;64071.38;5053700;28;20587;-53
2023/12/24 08:19:01;;;;;;;7.93;3.70;;;;;;;10.67;79.81;64061.19;5071752;28;20187;-54
2023/12/24 08:21:26;;;;;;;11.00;5.33;;;;;;;10.54;81.47;64049.47;5072185;28;20176;-54
2023/12/24 08:23:52;;;;;;;9.60;4.33;;;;;;;10.58;80.10;64054.41;5071887;28;20189;-54
2023/12/24 08:26:18;;;;;;;5.40;3.67;;;;;;;10.78;79.94;64075.75;5053549;28;20240;-54
2023/12/24 08:28:44;;;;;;;10.10;4.50;;;;;;;11.08;80.30;64106.06;5071835;28;20211;-55
2023/12/24 08:31:10;;;;;;;5.30;3.77;;;;;;;11.29;79.46;64133.56;5071635;28;20268;-53
2023/12/24 08:33:37;;;;;;;5.57;3.43;;;;;;;11.52;75.40;64154.28;5053619;28;20312;-54
2023/12/24 08:36:04;;;;;;;6.60;3.90;;;;;;;11.58;74.84;64165.34;5053926;28;20275;-55
2023/12/24 08:38:30;;;;;;;5.27;3.00;;;;;;;12.34;71.45;64245.59;5053443;28;20251;-53
2023/12/24 08:40:56;;;;;;;10.60;4.27;;;;;;;12.79;68.56;64292.41;5071654;28;20204;-53
2023/12/24 08:43:22;;;;;;;5.40;3.80;;;;;;;13.26;68.01;64349.06;5053613;28;20212;-54
2023/12/24 08:45:59;;;;;;;8.60;3.53;;;;;;;13.44;65.47;64363.22;5071196;28;20637;-53
2023/12/24 08:48:24;;;;;;;7.67;3.80;;;;;;;13.43;65.07;64362.66;5053662;28;20243;-53
2023/12/24 08:50:50;;;;;;;7.80;3.43;;;;;;;13.17;64.29;64334.13;5070969;28;20177;-53
2023/12/24 08:53:15;;;;;;;6.03;3.60;;;;;;;12.62;65.40;64276.84;5071451;28;20247;-54
2023/12/24 08:55:41;;;;;;;8.10;4.10;;;;;;;13.10;62.98;64325.91;5071223;28;20189;-56
2023/12/24 08:58:07;;;;;;;8.13;4.17;;;;;;;13.78;61.85;64397.44;5071296;28;20215;-55
2023/12/24 09:00:33;;;;;;;7.93;5.30;;;;;;;13.79;61.53;64401.09;5071033;28;20196;-53
2023/12/24 09:02:59;;;;;;;9.53;6.20;;;;;;;14.41;60.17;64471.19;5070927;28;20209;-54
2023/12/24 09:05:24;;;;;;;9.47;5.80;;;;;;;14.87;56.20;64519.75;5070988;28;20227;-54
2023/12/24 09:07:50;;;;;;;7.97;4.90;;;;;;;14.88;55.99;64520.88;5071160;28;20305;-54
2023/12/24 09:10:17;;;;;;;6.60;3.97;;;;;;;15.28;52.80;64566.28;5070973;28;20188;-55
2023/12/24 09:12:43;;;;;;;4.82;2.50;;;;;;;15.27;51.24;64562.66;5071072;28;20299;-55
2023/12/24 09:15:09;;;;;;;6.78;2.88;;;;;;;15.40;51.67;64574.94;5070892;28;20197;-55
2023/12/24 09:17:34;;;;;;;4.43;2.17;;;;;;;15.45;51.18;64585.00;5070848;28;20217;-56
2023/12/24 09:20:00;;;;;;;6.35;2.53;;;;;;;15.45;51.21;64582.47;5070743;28;20673;-54
2023/12/24 09:22:25;;;;;;;5.03;2.50;;;;;;;15.64;51.27;64600.81;5053122;28;20270;-54
2023/12/24 09:24:51;;;;;;;2.55;1.95;;;;;;;15.75;50.86;64612.91;5070838;28;20208;-58
2023/12/24 09:27:16;;;;;;;4.68;2.05;;;;;;;16.19;49.24;64663.88;5070685;28;20225;-53
2023/12/24 09:29:42;;;;;;;4.05;2.22;;;;;;;16.24;48.13;64671.38;5052646;28;20717;-53
2023/12/24 09:32:08;;;;;;;5.35;2.40;;;;;;;16.62;47.35;64711.22;5052685;28;20274;-55
2023/12/24 09:34:33;;;;;;;6.97;2.00;;;;;;;16.83;47.54;64735.81;5070589;28;20318;-53
2023/12/24 09:36:59;;;;;;;2.88;2.20;;;;;;;17.29;46.03;64784.47;5070648;28;20243;-54
2023/12/24 09:39:25;;;;;;;5.38;3.20;;;;;;;17.27;45.93;64779.19;5070548;28;20184;-52
2023/12/24 09:41:53;;;;;;;6.30;3.20;;;;;;;17.42;46.51;64796.25;5052446;28;20217;-54
2023/12/24 09:44:18;;;;;;;4.13;2.42;;;;;;;17.47;45.28;64803.75;5070075;28;20199;-54
2023/12/24 09:46:44;;;;;;;3.00;2.67;;;;;;;17.15;45.76;64771.59;5069866;28;20221;-55
2023/12/24 09:49:09;;;;;;;7.60;4.03;;;;;;;17.58;45.30;64815.91;5070277;28;20631;-56
2023/12/24 09:51:35;;;;;;;5.75;2.88;;;;;;;15.78;47.61;64619.31;5070130;28;20658;-54
2023/12/24 09:54:02;;;;;;;5.22;2.33;;;;;;;16.09;47.06;64650.31;5070575;28;20197;-56
2023/12/24 09:56:28;;;;;;;4.07;1.40;;;;;;;15.23;48.80;64553.69;5070505;28;20184;-57
2023/12/24 09:58:53;;;;;;;1.73;1.20;;;;;;;15.20;46.47;64557.47;5070641;28;20267;-55
2023/12/24 10:01:19;;;;;;;2.55;1.40;;;;;;;14.98;46.62;64534.41;5070585;28;20268;-55
2023/12/24 10:03:44;;;;;;;1.77;0.98;;;;;;;14.40;47.52;64470.66;5073907;28;20302;-55
2023/12/24 10:06:10;;;;;;;1.33;1.10;;;;;;;13.92;48.15;64418.44;5055848;28;20215;-56
2023/12/24 10:08:37;;;;;;;3.67;1.10;;;;;;;13.84;48.56;64409.09;5073820;28;20243;-56
2023/12/24 10:11:17;;;;;;;2.03;1.10;;;;;;;14.27;48.00;64453.81;5073892;28;20242;-52
2023/12/24 10:13:44;;;;;;;1.25;1.10;;;;;;;15.01;46.82;64537.69;5073633;28;20774;-54
2023/12/24 10:16:10;;;;;;;1.95;1.00;;;;;;;15.57;45.63;64596.22;5055770;28;20185;-56
2023/12/24 10:18:36;;;;;;;3.03;1.05;;;;;;;15.85;44.86;64629.56;5073932;28;20205;-54
2023/12/24 10:21:08;;;;;;;2.45;1.00;;;;;;;16.37;43.91;64683.69;5055638;28;20188;-54
2023/12/24 10:23:33;;;;;;;3.80;2.38;;;;;;;17.45;46.25;64802.09;5073813;28;20217;-54
2023/12/24 10:26:04;;;;;;;3.85;2.60;;;;;;;17.60;46.63;64820.66;5073642;28;20204;-55
2023/12/24 10:28:30;;;;;;;5.15;2.67;;;;;;;17.57;46.06;64817.88;5055625;28;20219;-53
2023/12/24 10:31:09;;;;;;;4.72;3.10;;;;;;;18.33;45.38;64898.59;5073680;28;20230;-53
2023/12/24 10:33:39;;;;;;;4.00;2.53;;;;;;;18.84;45.29;64954.31;5055430;28;20212;-55
2023/12/24 10:36:06;;;;;;;2.80;2.50;;;;;;;19.38;44.15;65015.94;5073173;28;20200;-54
2023/12/24 10:38:34;;;;;;;4.45;2.53;;;;;;;19.07;43.13;64979.69;5073830;28;20217;-55
2023/12/24 10:41:00;;;;;;;7.07;2.65;;;;;;;19.26;43.77;65000.13;5073616;28;20195;-54
2023/12/24 10:43:26;;;;;;;3.65;2.67;;;;;;;19.43;42.53;65020.91;5073185;28;20212;-53
2023/12/24 10:45:51;;;;;;;5.05;2.70;;;;;;;19.77;42.03;65059.00;5073408;28;20213;-53
2023/12/24 10:48:17;;;;;;;6.35;2.50;;;;;;;19.75;42.11;65051.69;5073389;28;20626;-55
2023/12/24 10:50:43;;;;;;;4.43;2.53;;;;;;;20.10;41.03;65090.31;5073221;28;20601;-57
2023/12/24 10:53:10;;;;;;;2.97;2.10;;;;;;;19.09;41.68;64981.34;5073366;28;20583;-55
2023/12/24 10:55:37;;;;;;;4.57;2.65;;;;;;;18.58;43.25;64925.09;5073307;28;20189;-58
2023/12/24 10:58:12;;;;;;;4.75;1.85;;;;;;;18.65;42.09;64930.25;5073142;28;20209;-54
2023/12/24 11:00:38;;;;;;;3.58;1.60;;;;;;;18.88;40.22;64958.19;5072933;28;20188;-58
2023/12/24 11:03:03;;;;;;;4.80;2.10;;;;;;;18.84;41.58;64951.22;5072864;28;20217;-54
2023/12/24 11:05:44;;;;;;;4.55;1.50;;;;;;;18.90;40.52;64960.38;5073127;28;20694;-57
2023/12/24 11:08:19;;;;;;;5.35;1.77;;;;;;;18.22;40.41;64886.44;5054911;28;20297;-54
2023/12/24 11:10:52;;;;;;;6.18;1.20;;;;;;;18.03;40.57;64865.50;5055185;28;20188;-54
2023/12/24 11:13:31;;;;;;;2.15;1.50;;;;;;;17.77;42.14;64836.28;5072798;28;20221;-54
2023/12/24 11:15:58;;;;;;;2.65;1.40;;;;;;;17.19;42.87;64770.38;5072872;28;20197;-54
2023/12/24 11:18:43;;;;;;;3.92;1.45;;;;;;;17.19;43.07;64778.53;5054662;28;20213;-54
2023/12/24 11:21:13;;;;;;;2.15;1.27;;;;;;;17.23;45.54;64774.78;5072768;28;20192;-54
2023/12/24 11:24:05;;;;;;;2.47;1.30;;;;;;;16.59;43.87;64707.94;5073003;28;20756;-53
2023/12/24 11:26:31;;;;;;;7.15;1.90;;;;;;;16.27;47.29;64674.66;5061363;28;20216;-53
2023/12/24 11:29:20;;;;;;;2.92;2.28;;;;;;;15.75;51.22;64616.00;5054688;28;20189;-58
2023/12/24 11:31:45;;;;;;;3.50;2.03;;;;;;;16.20;49.47;64666.97;5072536;28;20208;-55
2023/12/24 11:34:31;;;;;;;3.58;1.55;;;;;;;15.68;50.36;64608.31;5054672;28;20658;-55
2023/12/24 11:37:05;;;;;;;2.70;1.85;;;;;;;16.25;49.79;64667.94;5072482;28;20670;-54